sensor_id;sensor_type;location;lat;lon;timestamp;temperature;humidity
6496;DHT22;3281;47.658;9.166;2023-06-14T00:00:34;15.30;1.00
6496;DHT22;3281;47.658;9.166;2023-06-14T00:03:00;15.30;1.00
6496;DHT22;3281;47.658;9.166;2023-06-14T00:05:29;15.30;1.00
6496;DHT22;3281;47.658;9.166;2023-06-14T00:07:59;15.30;1.00
6496;DHT22;3281;47.658;9.166;2023-06-14T00:10:26;15.30;1.00
6496;DHT22;3281;47.658;9.166;2023-06-14T00:12:57;15.20;1.00
6496;DHT22;3281;47.658;9.166;2023-06-14T00:15:25;15.10;1.00
6496;DHT22;3281;47.658;9.166;2023-06-14T00:17:51;15.10;1.00
6496;DHT22;3281;47.658;9.166;2023-06-14T00:20:18;15.10;1.00
6496;DHT22;3281;47.658;9.166;2023-06-14T00:22:45;15.10;1.00
6496;DHT22;3281;47.658;9.166;2023-06-14T00:25:12;15.10;1.00
6496;DHT22;3281;47.658;9.166;2023-06-14T00:27:38;15.10;1.00
6496;DHT22;3281;47.658;9.166;2023-06-14T00:30:08;15.00;1.00
6496;DHT22;3281;47.658;9.166;2023-06-14T00:32:34;14.90;1.00
6496;DHT22;3281;47.658;9.166;2023-06-14T00:35:01;14.70;1.00
6496;DHT22;3281;47.658;9.166;2023-06-14T00:37:28;14.80;1.00
6496;DHT22;3281;47.658;9.166;2023-06-14T00:39:55;14.60;1.00
6496;DHT22;3281;47.658;9.166;2023-06-14T00:42:25;14.60;1.00
6496;DHT22;3281;47.658;9.166;2023-06-14T00:44:52;14.60;1.00
6496;DHT22;3281;47.658;9.166;2023-06-14T00:47:20;14.60;1.00
6496;DHT22;3281;47.658;9.166;2023-06-14T00:49:47;14.60;1.00
6496;DHT22;3281;47.658;9.166;2023-06-14T00:52:15;14.60;1.00
6496;DHT22;3281;47.658;9.166;2023-06-14T00:54:42;14.50;1.00
6496;DHT22;3281;47.658;9.166;2023-06-14T00:57:09;14.50;1.00
6496;DHT22;3281;47.658;9.166;2023-06-14T00:59:42;14.50;1.00
6496;DHT22;3281;47.658;9.166;2023-06-14T01:02:08;14.40;1.00
6496;DHT22;3281;47.658;9.166;2023-06-14T01:04:37;14.40;1.00
6496;DHT22;3281;47.658;9.166;2023-06-14T01:07:09;14.40;1.00
6496;DHT22;3281;47.658;9.166;2023-06-14T01:09:46;14.40;1.00
6496;DHT22;3281;47.658;9.166;2023-06-14T01:12:17;14.30;1.00
6496;DHT22;3281;47.658;9.166;2023-06-14T01:14:47;14.30;1.00
6496;DHT22;3281;47.658;9.166;2023-06-14T01:17:15;14.20;1.00
6496;DHT22;3281;47.658;9.166;2023-06-14T01:19:43;14.20;1.00
6496;DHT22;3281;47.658;9.166;2023-06-14T01:22:11;14.20;1.00
6496;DHT22;3281;47.658;9.166;2023-06-14T01:24:39;14.10;1.00
6496;DHT22;3281;47.658;9.166;2023-06-14T01:27:11;14.10;1.00
6496;DHT22;3281;47.658;9.166;2023-06-14T01:29:38;14.20;1.00
6496;DHT22;3281;47.658;9.166;2023-06-14T01:32:11;14.10;1.00
6496;DHT22;3281;47.658;9.166;2023-06-14T01:34:38;14.10;1.00
6496;DHT22;3281;47.658;9.166;2023-06-14T01:37:06;13.90;1.00
6496;DHT22;3281;47.658;9.166;2023-06-14T01:39:34;13.90;1.00
6496;DHT22;3281;47.658;9.166;2023-06-14T01:42:02;13.90;1.00
6496;DHT22;3281;47.658;9.166;2023-06-14T01:44:30;13.90;1.00
6496;DHT22;3281;47.658;9.166;2023-06-14T01:46:58;13.90;1.00
6496;DHT22;3281;47.658;9.166;2023-06-14T01:49:26;13.90;1.00
6496;DHT22;3281;47.658;9.166;2023-06-14T01:51:52;13.90;1.00
6496;DHT22;3281;47.658;9.166;2023-06-14T01:54:19;14.00;1.00
6496;DHT22;3281;47.658;9.166;2023-06-14T01:56:47;13.90;1.00
6496;DHT22;3281;47.658;9.166;2023-06-14T01:59:15;13.90;1.00
6496;DHT22;3281;47.658;9.166;2023-06-14T02:01:42;13.80;1.00
6496;DHT22;3281;47.658;9.166;2023-06-14T02:04:09;13.70;1.00
6496;DHT22;3281;47.658;9.166;2023-06-14T02:06:36;13.90;1.00
6496;DHT22;3281;47.658;9.166;2023-06-14T02:09:03;13.80;1.00
6496;DHT22;3281;47.658;9.166;2023-06-14T02:11:29;13.80;1.00
6496;DHT22;3281;47.658;9.166;2023-06-14T02:13:56;13.80;1.00
6496;DHT22;3281;47.658;9.166;2023-06-14T02:16:26;13.80;1.00
6496;DHT22;3281;47.658;9.166;2023-06-14T02:18:54;13.80;1.00
6496;DHT22;3281;47.658;9.166;2023-06-14T02:21:22;13.90;1.00
6496;DHT22;3281;47.658;9.166;2023-06-14T02:23:49;13.80;1.00
6496;DHT22;3281;47.658;9.166;2023-06-14T02:26:16;13.80;1.00
6496;DHT22;3281;47.658;9.166;2023-06-14T02:28:42;13.80;1.00
6496;DHT22;3281;47.658;9.166;2023-06-14T02:31:09;13.80;1.00
6496;DHT22;3281;47.658;9.166;2023-06-14T02:33:37;13.80;1.00
6496;DHT22;3281;47.658;9.166;2023-06-14T02:36:04;13.70;1.00
6496;DHT22;3281;47.658;9.166;2023-06-14T02:38:31;13.80;1.00
6496;DHT22;3281;47.658;9.166;2023-06-14T02:40:57;13.80;1.00
6496;DHT22;3281;47.658;9.166;2023-06-14T02:43:28;13.80;1.00
6496;DHT22;3281;47.658;9.166;2023-06-14T02:45:55;13.80;1.00
6496;DHT22;3281;47.658;9.166;2023-06-14T02:48:21;13.90;1.00
6496;DHT22;3281;47.658;9.166;2023-06-14T02:50:49;13.90;1.00
6496;DHT22;3281;47.658;9.166;2023-06-14T02:53:16;14.00;1.00
6496;DHT22;3281;47.658;9.166;2023-06-14T02:55:43;13.90;1.00
6496;DHT22;3281;47.658;9.166;2023-06-14T02:58:10;13.80;1.00
6496;DHT22;3281;47.658;9.166;2023-06-14T03:00:36;13.70;1.00
6496;DHT22;3281;47.658;9.166;2023-06-14T03:03:03;13.70;1.00
6496;DHT22;3281;47.658;9.166;2023-06-14T03:05:40;13.60;1.00
6496;DHT22;3281;47.658;9.166;2023-06-14T03:08:08;13.70;1.00
6496;DHT22;3281;47.658;9.166;2023-06-14T03:10:35;13.70;1.00
6496;DHT22;3281;47.658;9.166;2023-06-14T03:13:01;13.80;1.00
6496;DHT22;3281;47.658;9.166;2023-06-14T03:15:28;13.90;1.00
6496;DHT22;3281;47.658;9.166;2023-06-14T03:17:56;13.80;1.00
6496;DHT22;3281;47.658;9.166;2023-06-14T03:20:24;13.70;1.00
6496;DHT22;3281;47.658;9.166;2023-06-14T03:22:55;13.60;1.00
6496;DHT22;3281;47.658;9.166;2023-06-14T03:25:23;13.50;1.00
6496;DHT22;3281;47.658;9.166;2023-06-14T03:27:51;13.50;1.00
6496;DHT22;3281;47.658;9.166;2023-06-14T03:30:18;13.50;1.00
6496;DHT22;3281;47.658;9.166;2023-06-14T03:32:44;13.50;1.00
6496;DHT22;3281;47.658;9.166;2023-06-14T03:35:11;13.50;1.00
6496;DHT22;3281;47.658;9.166;2023-06-14T03:37:42;13.60;1.00
6496;DHT22;3281;47.658;9.166;2023-06-14T03:40:10;13.50;1.00
6496;DHT22;3281;47.658;9.166;2023-06-14T03:42:38;13.50;1.00
6496;DHT22;3281;47.658;9.166;2023-06-14T03:45:06;13.50;1.00
6496;DHT22;3281;47.658;9.166;2023-06-14T03:47:34;13.60;1.00
6496;DHT22;3281;47.658;9.166;2023-06-14T03:50:01;13.50;1.00
6496;DHT22;3281;47.658;9.166;2023-06-14T03:52:28;13.40;1.00
6496;DHT22;3281;47.658;9.166;2023-06-14T03:54:54;13.40;1.00
6496;DHT22;3281;47.658;9.166;2023-06-14T03:57:22;13.50;1.00
6496;DHT22;3281;47.658;9.166;2023-06-14T03:59:51;13.50;1.00
6496;DHT22;3281;47.658;9.166;2023-06-14T04:02:18;13.50;1.00
6496;DHT22;3281;47.658;9.166;2023-06-14T04:04:45;13.50;1.00
6496;DHT22;3281;47.658;9.166;2023-06-14T04:07:11;13.50;1.00
6496;DHT22;3281;47.658;9.166;2023-06-14T04:09:38;13.40;1.00
6496;DHT22;3281;47.658;9.166;2023-06-14T04:12:06;13.30;1.00
6496;DHT22;3281;47.658;9.166;2023-06-14T04:14:34;13.40;1.00
6496;DHT22;3281;47.658;9.166;2023-06-14T04:17:02;13.40;1.00
6496;DHT22;3281;47.658;9.166;2023-06-14T04:19:29;13.50;1.00
6496;DHT22;3281;47.658;9.166;2023-06-14T04:21:55;13.60;1.00
6496;DHT22;3281;47.658;9.166;2023-06-14T04:24:24;13.70;1.00
6496;DHT22;3281;47.658;9.166;2023-06-14T04:26:58;13.80;1.00
6496;DHT22;3281;47.658;9.166;2023-06-14T04:29:26;13.90;1.00
6496;DHT22;3281;47.658;9.166;2023-06-14T04:31:55;13.80;1.00
6496;DHT22;3281;47.658;9.166;2023-06-14T04:34:26;13.90;1.00
6496;DHT22;3281;47.658;9.166;2023-06-14T04:36:55;13.90;1.00
6496;DHT22;3281;47.658;9.166;2023-06-14T04:39:22;14.00;1.00
6496;DHT22;3281;47.658;9.166;2023-06-14T04:41:50;14.00;1.00
6496;DHT22;3281;47.658;9.166;2023-06-14T04:44:18;14.00;1.00
6496;DHT22;3281;47.658;9.166;2023-06-14T04:46:46;14.10;1.00
6496;DHT22;3281;47.658;9.166;2023-06-14T04:49:12;14.10;1.00
6496;DHT22;3281;47.658;9.166;2023-06-14T04:51:42;14.20;1.00
6496;DHT22;3281;47.658;9.166;2023-06-14T04:54:09;14.30;1.00
6496;DHT22;3281;47.658;9.166;2023-06-14T04:56:39;14.30;1.00
6496;DHT22;3281;47.658;9.166;2023-06-14T04:59:07;14.40;1.00
6496;DHT22;3281;47.658;9.166;2023-06-14T05:01:34;14.40;1.00
6496;DHT22;3281;47.658;9.166;2023-06-14T05:04:03;14.60;1.00
6496;DHT22;3281;47.658;9.166;2023-06-14T05:06:29;14.70;1.00
6496;DHT22;3281;47.658;9.166;2023-06-14T05:08:58;14.70;1.00
6496;DHT22;3281;47.658;9.166;2023-06-14T05:11:25;14.80;1.00
6496;DHT22;3281;47.658;9.166;2023-06-14T05:13:52;14.80;1.00
6496;DHT22;3281;47.658;9.166;2023-06-14T05:16:20;15.00;1.00
6496;DHT22;3281;47.658;9.166;2023-06-14T05:18:50;15.20;1.00
6496;DHT22;3281;47.658;9.166;2023-06-14T05:21:17;15.10;1.00
6496;DHT22;3281;47.658;9.166;2023-06-14T05:23:44;15.20;1.00
6496;DHT22;3281;47.658;9.166;2023-06-14T05:26:12;15.30;1.00
6496;DHT22;3281;47.658;9.166;2023-06-14T05:28:39;15.40;1.00
6496;DHT22;3281;47.658;9.166;2023-06-14T05:31:06;15.50;1.00
6496;DHT22;3281;47.658;9.166;2023-06-14T05:33:32;15.50;1.00
6496;DHT22;3281;47.658;9.166;2023-06-14T05:35:59;15.60;1.00
6496;DHT22;3281;47.658;9.166;2023-06-14T05:38:26;15.70;1.00
6496;DHT22;3281;47.658;9.166;2023-06-14T05:40:52;15.70;1.00
6496;DHT22;3281;47.658;9.166;2023-06-14T05:43:20;15.80;1.00
6496;DHT22;3281;47.658;9.166;2023-06-14T05:45:47;15.80;1.00
6496;DHT22;3281;47.658;9.166;2023-06-14T05:48:14;15.90;1.00
6496;DHT22;3281;47.658;9.166;2023-06-14T05:50:40;15.90;1.00
6496;DHT22;3281;47.658;9.166;2023-06-14T05:53:07;16.00;1.00
6496;DHT22;3281;47.658;9.166;2023-06-14T05:55:34;16.10;1.00
6496;DHT22;3281;47.658;9.166;2023-06-14T05:58:00;16.30;1.00
6496;DHT22;3281;47.658;9.166;2023-06-14T06:00:28;16.40;1.00
6496;DHT22;3281;47.658;9.166;2023-06-14T06:02:55;16.40;1.00
6496;DHT22;3281;47.658;9.166;2023-06-14T06:05:23;16.50;1.00
6496;DHT22;3281;47.658;9.166;2023-06-14T06:07:50;16.50;1.00
6496;DHT22;3281;47.658;9.166;2023-06-14T06:10:17;16.60;1.00
6496;DHT22;3281;47.658;9.166;2023-06-14T06:12:44;16.60;1.00
6496;DHT22;3281;47.658;9.166;2023-06-14T06:15:12;16.70;1.00
6496;DHT22;3281;47.658;9.166;2023-06-14T06:17:41;16.80;1.00
6496;DHT22;3281;47.658;9.166;2023-06-14T06:20:08;16.80;1.00
6496;DHT22;3281;47.658;9.166;2023-06-14T06:22:35;16.90;1.00
6496;DHT22;3281;47.658;9.166;2023-06-14T06:25:02;16.90;1.00
6496;DHT22;3281;47.658;9.166;2023-06-14T06:27:29;17.00;1.00
6496;DHT22;3281;47.658;9.166;2023-06-14T06:29:56;17.10;1.00
6496;DHT22;3281;47.658;9.166;2023-06-14T06:32:22;17.20;1.00
6496;DHT22;3281;47.658;9.166;2023-06-14T06:34:50;17.20;1.00
6496;DHT22;3281;47.658;9.166;2023-06-14T06:37:18;17.30;1.00
6496;DHT22;3281;47.658;9.166;2023-06-14T06:39:44;17.40;1.00
6496;DHT22;3281;47.658;9.166;2023-06-14T06:42:12;17.40;1.00
6496;DHT22;3281;47.658;9.166;2023-06-14T06:44:39;17.50;1.00
6496;DHT22;3281;47.658;9.166;2023-06-14T06:47:06;17.60;1.00
6496;DHT22;3281;47.658;9.166;2023-06-14T06:49:32;17.70;1.00
6496;DHT22;3281;47.658;9.166;2023-06-14T06:52:01;17.80;1.00
6496;DHT22;3281;47.658;9.166;2023-06-14T06:54:28;17.80;1.00
6496;DHT22;3281;47.658;9.166;2023-06-14T06:56:55;17.90;1.00
6496;DHT22;3281;47.658;9.166;2023-06-14T06:59:22;17.90;1.00
6496;DHT22;3281;47.658;9.166;2023-06-14T07:01:49;18.00;1.00
6496;DHT22;3281;47.658;9.166;2023-06-14T07:04:15;18.10;1.00
6496;DHT22;3281;47.658;9.166;2023-06-14T07:06:43;18.10;1.00
6496;DHT22;3281;47.658;9.166;2023-06-14T07:09:11;18.20;1.00
6496;DHT22;3281;47.658;9.166;2023-06-14T07:11:40;18.40;1.00
6496;DHT22;3281;47.658;9.166;2023-06-14T07:14:07;18.30;1.00
6496;DHT22;3281;47.658;9.166;2023-06-14T07:16:34;18.50;1.00
6496;DHT22;3281;47.658;9.166;2023-06-14T07:19:01;18.60;1.00
6496;DHT22;3281;47.658;9.166;2023-06-14T07:21:28;18.60;1.00
6496;DHT22;3281;47.658;9.166;2023-06-14T07:23:54;18.70;1.00
6496;DHT22;3281;47.658;9.166;2023-06-14T07:26:23;18.70;1.00
6496;DHT22;3281;47.658;9.166;2023-06-14T07:28:50;18.70;1.00
6496;DHT22;3281;47.658;9.166;2023-06-14T07:31:18;18.80;1.00
6496;DHT22;3281;47.658;9.166;2023-06-14T07:33:44;18.80;1.00
6496;DHT22;3281;47.658;9.166;2023-06-14T07:36:11;18.90;1.00
6496;DHT22;3281;47.658;9.166;2023-06-14T07:38:38;18.90;1.00
6496;DHT22;3281;47.658;9.166;2023-06-14T07:41:06;19.00;1.00
6496;DHT22;3281;47.658;9.166;2023-06-14T07:43:34;19.10;1.00
6496;DHT22;3281;47.658;9.166;2023-06-14T07:46:00;19.20;1.00
6496;DHT22;3281;47.658;9.166;2023-06-14T07:48:27;19.20;1.00
6496;DHT22;3281;47.658;9.166;2023-06-14T07:50:54;19.30;1.00
6496;DHT22;3281;47.658;9.166;2023-06-14T07:53:21;19.30;1.00
6496;DHT22;3281;47.658;9.166;2023-06-14T07:55:47;19.40;1.00
6496;DHT22;3281;47.658;9.166;2023-06-14T07:58:15;19.50;1.00
6496;DHT22;3281;47.658;9.166;2023-06-14T08:00:43;19.70;1.00
6496;DHT22;3281;47.658;9.166;2023-06-14T08:03:09;19.80;1.00
6496;DHT22;3281;47.658;9.166;2023-06-14T08:05:36;19.80;1.00
6496;DHT22;3281;47.658;9.166;2023-06-14T08:08:03;19.90;1.00
6496;DHT22;3281;47.658;9.166;2023-06-14T08:10:30;20.00;1.00
6496;DHT22;3281;47.658;9.166;2023-06-14T08:12:56;20.00;1.00
6496;DHT22;3281;47.658;9.166;2023-06-14T08:15:23;20.10;1.00
6496;DHT22;3281;47.658;9.166;2023-06-14T08:17:51;20.10;1.00
6496;DHT22;3281;47.658;9.166;2023-06-14T08:20:18;20.20;1.00
6496;DHT22;3281;47.658;9.166;2023-06-14T08:22:44;20.30;1.00
6496;DHT22;3281;47.658;9.166;2023-06-14T08:25:13;20.40;1.00
6496;DHT22;3281;47.658;9.166;2023-06-14T08:27:40;20.50;1.00
6496;DHT22;3281;47.658;9.166;2023-06-14T08:30:08;20.50;1.00
6496;DHT22;3281;47.658;9.166;2023-06-14T08:32:35;20.60;1.00
6496;DHT22;3281;47.658;9.166;2023-06-14T08:35:04;20.60;1.00
6496;DHT22;3281;47.658;9.166;2023-06-14T08:37:32;20.80;1.00
6496;DHT22;3281;47.658;9.166;2023-06-14T08:39:59;20.80;1.00
6496;DHT22;3281;47.658;9.166;2023-06-14T08:42:26;20.90;1.00
6496;DHT22;3281;47.658;9.166;2023-06-14T08:44:53;21.10;1.00
6496;DHT22;3281;47.658;9.166;2023-06-14T08:47:20;21.10;1.00
6496;DHT22;3281;47.658;9.166;2023-06-14T08:49:47;21.10;1.00
6496;DHT22;3281;47.658;9.166;2023-06-14T08:52:18;21.10;1.00
6496;DHT22;3281;47.658;9.166;2023-06-14T08:54:46;21.30;1.00
6496;DHT22;3281;47.658;9.166;2023-06-14T08:57:14;21.30;1.00
6496;DHT22;3281;47.658;9.166;2023-06-14T08:59:46;21.40;1.00
6496;DHT22;3281;47.658;9.166;2023-06-14T09:02:14;21.40;1.00
6496;DHT22;3281;47.658;9.166;2023-06-14T09:04:43;21.40;1.00
6496;DHT22;3281;47.658;9.166;2023-06-14T09:07:10;21.40;1.00
6496;DHT22;3281;47.658;9.166;2023-06-14T09:09:40;21.50;1.00
6496;DHT22;3281;47.658;9.166;2023-06-14T09:12:08;21.50;1.00
6496;DHT22;3281;47.658;9.166;2023-06-14T09:14:36;21.60;1.00
6496;DHT22;3281;47.658;9.166;2023-06-14T09:17:05;21.60;1.00
6496;DHT22;3281;47.658;9.166;2023-06-14T09:19:32;21.60;1.00
6496;DHT22;3281;47.658;9.166;2023-06-14T09:22:00;21.70;1.00
6496;DHT22;3281;47.658;9.166;2023-06-14T09:24:26;21.80;1.00
6496;DHT22;3281;47.658;9.166;2023-06-14T09:26:54;21.80;1.00
6496;DHT22;3281;47.658;9.166;2023-06-14T09:29:22;21.90;1.00
6496;DHT22;3281;47.658;9.166;2023-06-14T09:31:49;21.90;1.00
6496;DHT22;3281;47.658;9.166;2023-06-14T09:34:16;21.90;1.00
6496;DHT22;3281;47.658;9.166;2023-06-14T09:36:45;21.90;1.00
6496;DHT22;3281;47.658;9.166;2023-06-14T09:39:17;21.90;1.00
6496;DHT22;3281;47.658;9.166;2023-06-14T09:41:44;22.00;1.00
6496;DHT22;3281;47.658;9.166;2023-06-14T09:44:12;22.20;1.00
6496;DHT22;3281;47.658;9.166;2023-06-14T09:46:38;22.50;1.00
6496;DHT22;3281;47.658;9.166;2023-06-14T09:49:06;22.60;1.00
6496;DHT22;3281;47.658;9.166;2023-06-14T09:51:34;22.90;1.00
6496;DHT22;3281;47.658;9.166;2023-06-14T09:54:03;23.10;1.00
6496;DHT22;3281;47.658;9.166;2023-06-14T09:56:32;23.60;1.00
6496;DHT22;3281;47.658;9.166;2023-06-14T09:59:01;24.00;1.00
6496;DHT22;3281;47.658;9.166;2023-06-14T10:01:32;24.40;1.00
6496;DHT22;3281;47.658;9.166;2023-06-14T10:04:03;25.00;1.00
6496;DHT22;3281;47.658;9.166;2023-06-14T10:06:32;26.00;1.00
6496;DHT22;3281;47.658;9.166;2023-06-14T10:09:04;26.20;1.00
6496;DHT22;3281;47.658;9.166;2023-06-14T10:11:31;26.70;1.00
6496;DHT22;3281;47.658;9.166;2023-06-14T10:13:58;27.40;1.00
6496;DHT22;3281;47.658;9.166;2023-06-14T10:16:33;27.50;1.00
6496;DHT22;3281;47.658;9.166;2023-06-14T10:19:06;27.60;1.00
6496;DHT22;3281;47.658;9.166;2023-06-14T10:21:43;27.90;1.00
6496;DHT22;3281;47.658;9.166;2023-06-14T10:24:16;27.90;1.00
6496;DHT22;3281;47.658;9.166;2023-06-14T10:26:51;28.10;1.00
6496;DHT22;3281;47.658;9.166;2023-06-14T10:29:18;28.30;1.00
6496;DHT22;3281;47.658;9.166;2023-06-14T10:31:47;28.20;1.00
6496;DHT22;3281;47.658;9.166;2023-06-14T10:34:21;27.80;1.00
6496;DHT22;3281;47.658;9.166;2023-06-14T10:37:01;28.10;1.00
6496;DHT22;3281;47.658;9.166;2023-06-14T10:39:29;28.70;1.00
6496;DHT22;3281;47.658;9.166;2023-06-14T10:41:57;29.10;1.00
6496;DHT22;3281;47.658;9.166;2023-06-14T10:44:42;29.10;1.00
6496;DHT22;3281;47.658;9.166;2023-06-14T10:47:26;29.40;1.00
6496;DHT22;3281;47.658;9.166;2023-06-14T10:49:54;29.20;1.00
6496;DHT22;3281;47.658;9.166;2023-06-14T10:52:24;29.80;1.00
6496;DHT22;3281;47.658;9.166;2023-06-14T10:55:05;30.30;1.00
6496;DHT22;3281;47.658;9.166;2023-06-14T10:57:35;30.70;1.00
6496;DHT22;3281;47.658;9.166;2023-06-14T11:00:03;30.20;1.00
6496;DHT22;3281;47.658;9.166;2023-06-14T11:05:49;29.30;1.00
6496;DHT22;3281;47.658;9.166;2023-06-14T11:08:39;28.90;1.00
6496;DHT22;3281;47.658;9.166;2023-06-14T11:11:07;29.10;1.00
6496;DHT22;3281;47.658;9.166;2023-06-14T11:13:37;29.00;1.00
6496;DHT22;3281;47.658;9.166;2023-06-14T11:16:10;29.40;1.00
6496;DHT22;3281;47.658;9.166;2023-06-14T11:18:38;29.00;1.00
6496;DHT22;3281;47.658;9.166;2023-06-14T11:21:05;29.40;1.00
6496;DHT22;3281;47.658;9.166;2023-06-14T11:23:32;29.20;1.00
6496;DHT22;3281;47.658;9.166;2023-06-14T11:25:58;29.30;1.00
6496;DHT22;3281;47.658;9.166;2023-06-14T11:28:35;29.10;1.00
6496;DHT22;3281;47.658;9.166;2023-06-14T11:31:03;29.60;1.00
6496;DHT22;3281;47.658;9.166;2023-06-14T11:33:30;29.40;1.00
6496;DHT22;3281;47.658;9.166;2023-06-14T11:35:58;28.90;1.00
6496;DHT22;3281;47.658;9.166;2023-06-14T11:38:25;28.60;1.00
6496;DHT22;3281;47.658;9.166;2023-06-14T11:40:52;28.60;1.00
6496;DHT22;3281;47.658;9.166;2023-06-14T11:43:18;28.30;1.00
6496;DHT22;3281;47.658;9.166;2023-06-14T11:45:48;27.80;1.00
6496;DHT22;3281;47.658;9.166;2023-06-14T11:48:15;27.20;1.00
6496;DHT22;3281;47.658;9.166;2023-06-14T11:50:42;26.50;1.00
6496;DHT22;3281;47.658;9.166;2023-06-14T11:53:10;26.00;1.00
6496;DHT22;3281;47.658;9.166;2023-06-14T11:55:37;25.70;1.00
6496;DHT22;3281;47.658;9.166;2023-06-14T11:58:04;25.30;1.00
6496;DHT22;3281;47.658;9.166;2023-06-14T12:00:31;25.00;1.00
6496;DHT22;3281;47.658;9.166;2023-06-14T12:02:58;24.70;1.00
6496;DHT22;3281;47.658;9.166;2023-06-14T12:05:25;24.50;1.00
6496;DHT22;3281;47.658;9.166;2023-06-14T12:07:58;24.40;1.00
6496;DHT22;3281;47.658;9.166;2023-06-14T12:10:27;24.50;1.00
6496;DHT22;3281;47.658;9.166;2023-06-14T12:12:57;24.60;1.00
6496;DHT22;3281;47.658;9.166;2023-06-14T12:15:27;24.70;1.00
6496;DHT22;3281;47.658;9.166;2023-06-14T12:17:54;24.70;1.00
6496;DHT22;3281;47.658;9.166;2023-06-14T12:20:20;24.60;1.00
6496;DHT22;3281;47.658;9.166;2023-06-14T12:22:51;24.60;1.00
6496;DHT22;3281;47.658;9.166;2023-06-14T12:25:28;24.50;1.00
6496;DHT22;3281;47.658;9.166;2023-06-14T12:27:57;24.50;1.00
6496;DHT22;3281;47.658;9.166;2023-06-14T12:30:23;24.50;1.00
6496;DHT22;3281;47.658;9.166;2023-06-14T12:32:50;24.40;1.00
6496;DHT22;3281;47.658;9.166;2023-06-14T12:35:17;24.30;1.00
6496;DHT22;3281;47.658;9.166;2023-06-14T12:37:45;24.30;1.00
6496;DHT22;3281;47.658;9.166;2023-06-14T12:40:12;24.40;1.00
6496;DHT22;3281;47.658;9.166;2023-06-14T12:42:40;24.40;1.00
6496;DHT22;3281;47.658;9.166;2023-06-14T12:45:08;24.30;1.00
6496;DHT22;3281;47.658;9.166;2023-06-14T12:47:35;24.20;1.00
6496;DHT22;3281;47.658;9.166;2023-06-14T12:50:04;24.10;1.00
6496;DHT22;3281;47.658;9.166;2023-06-14T12:52:31;24.20;1.00
6496;DHT22;3281;47.658;9.166;2023-06-14T12:55:01;24.30;1.00
6496;DHT22;3281;47.658;9.166;2023-06-14T12:57:28;24.30;1.00
6496;DHT22;3281;47.658;9.166;2023-06-14T12:59:56;24.20;1.00
6496;DHT22;3281;47.658;9.166;2023-06-14T13:02:23;24.30;1.00
6496;DHT22;3281;47.658;9.166;2023-06-14T13:04:51;24.20;1.00
6496;DHT22;3281;47.658;9.166;2023-06-14T13:07:18;24.40;1.00
6496;DHT22;3281;47.658;9.166;2023-06-14T13:09:45;24.30;1.00
6496;DHT22;3281;47.658;9.166;2023-06-14T13:12:11;24.20;1.00
6496;DHT22;3281;47.658;9.166;2023-06-14T13:14:38;24.30;1.00
6496;DHT22;3281;47.658;9.166;2023-06-14T13:17:08;24.20;1.00
6496;DHT22;3281;47.658;9.166;2023-06-14T13:19:35;24.20;1.00
6496;DHT22;3281;47.658;9.166;2023-06-14T13:22:02;24.20;1.00
6496;DHT22;3281;47.658;9.166;2023-06-14T13:24:29;24.20;1.00
6496;DHT22;3281;47.658;9.166;2023-06-14T13:26:56;24.30;1.00
6496;DHT22;3281;47.658;9.166;2023-06-14T13:29:23;24.30;1.00
6496;DHT22;3281;47.658;9.166;2023-06-14T13:31:50;24.30;1.00
6496;DHT22;3281;47.658;9.166;2023-06-14T13:34:18;24.50;1.00
6496;DHT22;3281;47.658;9.166;2023-06-14T13:36:45;24.60;1.00
6496;DHT22;3281;47.658;9.166;2023-06-14T13:39:12;24.60;1.00
6496;DHT22;3281;47.658;9.166;2023-06-14T13:41:39;24.50;1.00
6496;DHT22;3281;47.658;9.166;2023-06-14T13:44:06;24.70;1.00
6496;DHT22;3281;47.658;9.166;2023-06-14T13:46:32;24.80;1.00
6496;DHT22;3281;47.658;9.166;2023-06-14T13:48:59;24.80;1.00
6496;DHT22;3281;47.658;9.166;2023-06-14T13:51:28;24.80;1.00
6496;DHT22;3281;47.658;9.166;2023-06-14T13:53:55;24.70;1.00
6496;DHT22;3281;47.658;9.166;2023-06-14T13:56:22;24.70;1.00
6496;DHT22;3281;47.658;9.166;2023-06-14T13:58:49;24.70;1.00
6496;DHT22;3281;47.658;9.166;2023-06-14T14:01:16;24.80;1.00
6496;DHT22;3281;47.658;9.166;2023-06-14T14:03:45;25.00;1.00
6496;DHT22;3281;47.658;9.166;2023-06-14T14:06:11;24.90;1.00
6496;DHT22;3281;47.658;9.166;2023-06-14T14:08:40;24.90;1.00
6496;DHT22;3281;47.658;9.166;2023-06-14T14:11:06;24.90;1.00
6496;DHT22;3281;47.658;9.166;2023-06-14T14:13:34;25.00;1.00
6496;DHT22;3281;47.658;9.166;2023-06-14T14:16:02;24.90;1.00
6496;DHT22;3281;47.658;9.166;2023-06-14T14:18:28;24.70;1.00
6496;DHT22;3281;47.658;9.166;2023-06-14T14:20:56;24.70;1.00
6496;DHT22;3281;47.658;9.166;2023-06-14T14:23:23;24.70;1.00
6496;DHT22;3281;47.658;9.166;2023-06-14T14:25:52;24.70;1.00
6496;DHT22;3281;47.658;9.166;2023-06-14T14:28:18;24.60;1.00
6496;DHT22;3281;47.658;9.166;2023-06-14T14:30:46;24.50;1.00
6496;DHT22;3281;47.658;9.166;2023-06-14T14:33:13;24.40;1.00
6496;DHT22;3281;47.658;9.166;2023-06-14T14:35:42;24.30;1.00
6496;DHT22;3281;47.658;9.166;2023-06-14T14:38:09;24.30;1.00
6496;DHT22;3281;47.658;9.166;2023-06-14T14:40:36;24.30;1.00
6496;DHT22;3281;47.658;9.166;2023-06-14T14:43:04;24.40;1.00
6496;DHT22;3281;47.658;9.166;2023-06-14T14:45:31;24.50;1.00
6496;DHT22;3281;47.658;9.166;2023-06-14T14:47:58;24.50;1.00
6496;DHT22;3281;47.658;9.166;2023-06-14T14:50:25;24.50;1.00
6496;DHT22;3281;47.658;9.166;2023-06-14T14:52:52;24.50;1.00
6496;DHT22;3281;47.658;9.166;2023-06-14T14:55:18;24.40;1.00
6496;DHT22;3281;47.658;9.166;2023-06-14T14:57:45;24.50;1.00
6496;DHT22;3281;47.658;9.166;2023-06-14T15:00:14;24.60;1.00
6496;DHT22;3281;47.658;9.166;2023-06-14T15:02:41;24.50;1.00
6496;DHT22;3281;47.658;9.166;2023-06-14T15:05:07;24.40;1.00
6496;DHT22;3281;47.658;9.166;2023-06-14T15:07:34;24.40;1.00
6496;DHT22;3281;47.658;9.166;2023-06-14T15:10:01;24.60;1.00
6496;DHT22;3281;47.658;9.166;2023-06-14T15:12:28;24.50;1.00
6496;DHT22;3281;47.658;9.166;2023-06-14T15:14:55;24.60;1.00
6496;DHT22;3281;47.658;9.166;2023-06-14T15:17:23;24.50;1.00
6496;DHT22;3281;47.658;9.166;2023-06-14T15:19:50;24.50;1.00
6496;DHT22;3281;47.658;9.166;2023-06-14T15:22:17;24.50;1.00
6496;DHT22;3281;47.658;9.166;2023-06-14T15:24:44;24.40;1.00
6496;DHT22;3281;47.658;9.166;2023-06-14T15:27:12;24.30;1.00
6496;DHT22;3281;47.658;9.166;2023-06-14T15:29:40;24.30;1.00
6496;DHT22;3281;47.658;9.166;2023-06-14T15:32:08;24.30;1.00
6496;DHT22;3281;47.658;9.166;2023-06-14T15:34:36;24.20;1.00
6496;DHT22;3281;47.658;9.166;2023-06-14T15:37:05;24.10;1.00
6496;DHT22;3281;47.658;9.166;2023-06-14T15:39:31;24.10;1.00
6496;DHT22;3281;47.658;9.166;2023-06-14T15:41:58;24.20;1.00
6496;DHT22;3281;47.658;9.166;2023-06-14T15:44:25;24.10;1.00
6496;DHT22;3281;47.658;9.166;2023-06-14T15:46:52;24.10;1.00
6496;DHT22;3281;47.658;9.166;2023-06-14T15:49:19;24.00;1.00
6496;DHT22;3281;47.658;9.166;2023-06-14T15:51:47;24.00;1.00
6496;DHT22;3281;47.658;9.166;2023-06-14T15:54:14;24.10;1.00
6496;DHT22;3281;47.658;9.166;2023-06-14T15:56:41;23.90;1.00
6496;DHT22;3281;47.658;9.166;2023-06-14T15:59:07;23.90;1.00
6496;DHT22;3281;47.658;9.166;2023-06-14T16:01:34;23.80;1.00
6496;DHT22;3281;47.658;9.166;2023-06-14T16:04:01;23.90;1.00
6496;DHT22;3281;47.658;9.166;2023-06-14T16:06:28;23.80;1.00
6496;DHT22;3281;47.658;9.166;2023-06-14T16:08:56;23.90;1.00
6496;DHT22;3281;47.658;9.166;2023-06-14T16:11:23;23.80;1.00
6496;DHT22;3281;47.658;9.166;2023-06-14T16:13:49;23.70;1.00
6496;DHT22;3281;47.658;9.166;2023-06-14T16:16:16;23.70;1.00
6496;DHT22;3281;47.658;9.166;2023-06-14T16:18:43;23.80;1.00
6496;DHT22;3281;47.658;9.166;2023-06-14T16:21:09;23.80;1.00
6496;DHT22;3281;47.658;9.166;2023-06-14T16:23:37;23.80;1.00